Time;durP1;ratioP1;P1;durP2;ratioP2;P2;SDS_P1;SDS_P2;PMS_P1;PMS_P2;Temp;Humidity;BMP_temperature;BMP_pressure;BME280_temperature;BME280_humidity;BME280_pressure;Samples;Min_cycle;Max_cycle;Signal;HPM_P1;HPM_P2
2022/03/30 00:00:48;;;;;;;36.97;21.80;;;;;;;8.45;65.76;100703.66;5016855;28;20033;-77
2022/03/30 00:03:14;;;;;;;39.28;21.25;;;;;;;8.41;66.10;100702.16;5031166;28;20036;-77
2022/03/30 00:05:39;;;;;;;36.90;22.13;;;;;;;8.38;66.22;100703.19;5014405;28;20117;-77
2022/03/30 00:08:06;;;;;;;37.30;21.95;;;;;;;8.35;65.92;100708.63;5008723;28;20037;-76
2022/03/30 00:10:32;;;;;;;41.85;22.65;;;;;;;8.34;66.42;100711.38;5010380;28;20021;-77
2022/03/30 00:12:58;;;;;;;40.40;21.92;;;;;;;8.32;66.15;100713.22;5042518;28;20108;-77
2022/03/30 00:15:24;;;;;;;39.40;22.33;;;;;;;8.30;66.32;100707.25;5010529;28;20045;-76
2022/03/30 00:17:50;;;;;;;38.50;23.08;;;;;;;8.26;66.40;100708.38;5013206;28;20571;-77
2022/03/30 00:20:16;;;;;;;42.70;22.17;;;;;;;8.24;66.94;100710.28;5027653;28;20029;-76
2022/03/30 00:22:42;;;;;;;37.67;22.10;;;;;;;8.23;67.04;100704.19;5030096;28;20641;-76
2022/03/30 00:25:09;;;;;;;35.85;22.70;;;;;;;8.22;66.90;100706.91;5029248;28;20033;-77
2022/03/30 00:27:35;;;;;;;44.63;22.20;;;;;;;8.16;67.01;100703.75;5030178;28;20082;-76
2022/03/30 00:30:02;;;;;;;38.65;21.73;;;;;;;8.15;67.24;100704.69;5028737;28;20017;-76
2022/03/30 00:32:28;;;;;;;46.60;23.50;;;;;;;8.12;67.31;100707.53;5028397;28;20107;-77
2022/03/30 00:34:53;;;;;;;39.90;22.42;;;;;;;8.13;67.45;100703.13;5026121;28;20050;-77
2022/03/30 00:37:19;;;;;;;39.58;23.35;;;;;;;8.09;67.80;100691.19;5022799;28;20387;-76
2022/03/30 00:39:44;;;;;;;37.92;23.20;;;;;;;8.07;67.82;100683.41;5007938;28;20140;-77
2022/03/30 00:42:15;;;;;;;42.83;22.50;;;;;;;8.02;67.52;100685.50;5021790;28;20021;-76
2022/03/30 00:44:40;;;;;;;45.20;23.15;;;;;;;7.99;68.07;100684.84;5028550;28;20532;-77
2022/03/30 00:47:17;;;;;;;39.42;23.30;;;;;;;7.97;68.10;100682.31;5029051;28;20063;-77
2022/03/30 00:49:43;;;;;;;39.67;22.92;;;;;;;7.94;67.97;100679.91;5029239;28;20036;-77
2022/03/30 00:52:09;;;;;;;45.33;22.98;;;;;;;7.93;68.40;100700.97;5023088;28;20033;-76
2022/03/30 00:54:35;;;;;;;41.50;23.63;;;;;;;7.91;68.64;100697.59;5029412;28;20060;-76
2022/03/30 00:57:01;;;;;;;37.67;22.30;;;;;;;7.88;68.68;100697.81;5028675;28;20025;-77
2022/03/30 00:59:27;;;;;;;39.65;22.83;;;;;;;7.86;68.31;100697.91;5028465;28;20017;-77
2022/03/30 01:01:52;;;;;;;37.08;22.25;;;;;;;7.82;68.71;100694.66;5028330;28;20036;-76
2022/03/30 01:04:17;;;;;;;37.45;22.65;;;;;;;7.81;68.38;100690.34;5027561;28;20063;-76
2022/03/30 01:06:43;;;;;;;41.97;22.38;;;;;;;7.76;68.64;100687.19;5026821;28;20086;-76
2022/03/30 01:09:08;;;;;;;40.60;22.52;;;;;;;7.74;68.57;100681.22;5043438;28;20037;-77
2022/03/30 01:11:33;;;;;;;40.55;22.27;;;;;;;7.73;68.50;100689.19;5009603;28;20367;-77
2022/03/30 01:13:59;;;;;;;46.22;22.60;;;;;;;7.66;68.88;100673.03;5009114;28;20083;-77
2022/03/30 01:16:25;;;;;;;36.45;21.88;;;;;;;7.66;68.78;100680.03;5009551;28;20030;-77
2022/03/30 01:19:05;;;;;;;40.60;21.65;;;;;;;7.64;68.44;100668.81;5009388;28;20033;-77
2022/03/30 01:21:31;;;;;;;40.65;22.13;;;;;;;7.60;68.59;100675.16;5026812;28;20033;-78
2022/03/30 01:23:56;;;;;;;42.83;22.85;;;;;;;7.57;68.71;100670.13;5027722;28;20364;-79
2022/03/30 01:26:23;;;;;;;46.20;22.88;;;;;;;7.53;68.93;100666.88;5014444;28;20103;-78
2022/03/30 01:28:49;;;;;;;40.10;22.23;;;;;;;7.51;68.88;100664.34;5007364;28;20116;-78
2022/03/30 01:33:58;;;;;;;39.22;21.95;;;;;;;7.47;68.95;100662.03;5028297;28;20063;-77
2022/03/30 01:36:25;;;;;;;38.75;22.33;;;;;;;7.44;68.72;100659.63;5028906;28;20108;-77
2022/03/30 01:38:51;;;;;;;42.15;22.33;;;;;;;7.39;68.99;100659.91;5012100;28;20030;-76
2022/03/30 01:41:16;;;;;;;39.03;21.48;;;;;;;7.36;69.08;100654.88;5021621;28;20037;-76
2022/03/30 01:43:42;;;;;;;37.58;22.13;;;;;;;7.34;69.32;100648.91;5026736;28;20087;-77
2022/03/30 01:46:07;;;;;;;40.50;22.40;;;;;;;7.27;69.31;100650.22;5060157;28;20125;-76
2022/03/30 01:48:32;;;;;;;44.10;22.77;;;;;;;7.28;69.20;100657.16;5026683;28;20500;-76
2022/03/30 01:50:59;;;;;;;40.45;22.45;;;;;;;7.29;69.50;100658.00;5027135;28;20033;-77
2022/03/30 01:53:25;;;;;;;41.08;21.98;;;;;;;7.25;69.73;100653.88;5028234;28;20028;-76
2022/03/30 01:55:51;;;;;;;38.30;23.13;;;;;;;7.20;70.12;100654.16;5025878;28;20041;-77
2022/03/30 01:58:17;;;;;;;43.90;24.48;;;;;;;7.17;70.37;100652.56;5058764;28;20049;-77
2022/03/30 02:00:43;;;;;;;41.85;23.20;;;;;;;7.12;70.59;100645.94;5018895;28;20029;-76
2022/03/30 02:03:08;;;;;;;44.65;23.20;;;;;;;7.09;70.72;100646.97;5020187;28;20049;-76
2022/03/30 02:05:34;;;;;;;41.95;22.27;;;;;;;7.06;70.52;100641.94;5042065;28;20064;-77
2022/03/30 02:08:00;;;;;;;42.63;22.52;;;;;;;7.02;70.59;100642.22;5026856;28;20388;-77
2022/03/30 02:10:25;;;;;;;39.20;22.92;;;;;;;6.99;70.41;100639.81;5025917;28;20448;-76
2022/03/30 02:12:50;;;;;;;40.22;22.88;;;;;;;6.93;70.62;100638.41;5060396;28;20044;-76
2022/03/30 02:15:16;;;;;;;40.85;23.05;;;;;;;6.88;70.74;100633.47;5027015;28;20396;-78
2022/03/30 02:17:42;;;;;;;46.97;22.73;;;;;;;6.85;70.71;100644.13;5024252;28;20537;-79
2022/03/30 02:20:08;;;;;;;40.13;23.38;;;;;;;6.82;70.81;100638.25;5056515;28;20049;-79
2022/03/30 02:22:34;;;;;;;41.60;23.35;;;;;;;6.77;71.08;100633.28;5008922;28;20500;-78
2022/03/30 02:25:00;;;;;;;41.08;22.63;;;;;;;6.75;71.26;100622.06;5032918;28;20025;-79
2022/03/30 02:27:25;;;;;;;47.45;23.25;;;;;;;6.71;71.14;100624.97;5026996;28;20087;-78
2022/03/30 02:29:54;;;;;;;43.47;23.10;;;;;;;6.69;71.22;100626.84;5027079;28;20120;-79
2022/03/30 02:32:20;;;;;;;42.50;23.25;;;;;;;6.65;71.15;100615.75;5028899;28;20509;-79
2022/03/30 02:34:45;;;;;;;44.08;23.30;;;;;;;6.59;71.24;100605.66;5029278;28;20054;-78
2022/03/30 02:37:12;;;;;;;43.90;23.95;;;;;;;6.56;71.53;100605.84;5058983;28;20030;-80
2022/03/30 02:39:38;;;;;;;39.45;23.83;;;;;;;6.54;71.78;100605.09;5010972;28;20026;-79
2022/03/30 02:42:06;;;;;;;42.90;23.48;;;;;;;6.49;71.65;100594.94;5025059;28;20025;-78
2022/03/30 02:44:32;;;;;;;38.75;23.42;;;;;;;6.49;71.58;100594.94;5030435;28;20108;-79
2022/03/30 02:46:57;;;;;;;39.20;22.33;;;;;;;6.48;71.90;100595.03;5031574;28;20140;-79
2022/03/30 02:49:25;;;;;;;44.45;23.67;;;;;;;6.44;72.22;100596.16;5031814;28;20034;-78
2022/03/30 02:51:50;;;;;;;45.53;23.35;;;;;;;6.39;72.35;100596.41;5030477;28;20031;-78
2022/03/30 02:54:16;;;;;;;38.92;22.38;;;;;;;6.37;72.45;100590.44;5034344;28;20096;-79
2022/03/30 02:56:41;;;;;;;40.88;22.92;;;;;;;6.34;72.21;100589.78;5026719;28;20394;-79
2022/03/30 02:59:06;;;;;;;39.63;23.30;;;;;;;6.29;72.57;100579.63;5011279;28;20068;-79
2022/03/30 03:01:32;;;;;;;46.60;24.45;;;;;;;6.27;72.63;100584.94;5013308;28;20029;-80
2022/03/30 03:03:57;;;;;;;47.13;23.92;;;;;;;6.25;72.35;100586.81;5031646;28;20039;-79
2022/03/30 03:06:23;;;;;;;40.90;23.40;;;;;;;6.23;72.76;100588.66;5030580;28;20030;-79
2022/03/30 03:08:49;;;;;;;42.92;23.35;;;;;;;6.22;72.57;100587.00;5063067;28;20397;-79
2022/03/30 03:11:15;;;;;;;46.97;23.95;;;;;;;6.19;73.06;100588.94;5028444;28;20651;-79
2022/03/30 03:13:40;;;;;;;43.53;22.42;;;;;;;6.17;72.89;100581.19;5030323;28;20029;-79
2022/03/30 03:16:05;;;;;;;39.53;22.38;;;;;;;6.14;73.09;100584.00;5024613;28;20386;-77
2022/03/30 03:18:31;;;;;;;43.28;23.42;;;;;;;6.14;72.80;100584.00;5011245;28;20029;-76
2022/03/30 03:20:56;;;;;;;44.50;23.13;;;;;;;6.13;73.08;100576.25;5009495;28;20030;-77
2022/03/30 03:23:22;;;;;;;41.35;22.85;;;;;;;6.10;73.27;100576.44;5009558;28;20034;-77
2022/03/30 03:25:48;;;;;;;41.20;24.08;;;;;;;6.05;73.39;100575.88;5011947;28;20390;-76
2022/03/30 03:28:14;;;;;;;42.88;23.50;;;;;;;6.06;73.20;100573.19;5026020;28;20029;-77
2022/03/30 03:30:40;;;;;;;42.42;23.33;;;;;;;6.00;73.37;100564.84;5029227;28;20043;-77
2022/03/30 03:33:06;;;;;;;47.50;24.30;;;;;;;5.98;73.16;100562.31;5029011;28;20045;-77
2022/03/30 03:35:32;;;;;;;42.17;23.80;;;;;;;5.97;73.63;100564.09;5028731;28;20095;-77
2022/03/30 03:37:58;;;;;;;44.90;23.42;;;;;;;5.93;73.61;100567.81;5019823;28;20030;-76
2022/03/30 03:40:24;;;;;;;44.38;23.08;;;;;;;5.93;73.39;100569.59;5027789;28;20033;-76
2022/03/30 03:42:49;;;;;;;43.38;24.20;;;;;;;5.91;73.75;100566.22;5013357;28;20040;-76
2022/03/30 03:45:15;;;;;;;44.83;23.33;;;;;;;5.89;73.38;100565.44;5018462;28;20029;-76
2022/03/30 03:47:41;;;;;;;43.45;24.65;;;;;;;5.87;73.52;100559.47;5022690;28;20017;-76
2022/03/30 03:50:09;;;;;;;47.38;24.13;;;;;;;5.83;73.62;100563.22;5020442;28;20048;-76
2022/03/30 03:52:34;;;;;;;48.03;24.05;;;;;;;5.81;73.75;100554.63;5029155;28;20029;-77
2022/03/30 03:54:59;;;;;;;40.33;23.60;;;;;;;5.77;74.07;100568.78;5010887;28;20025;-77
2022/03/30 03:57:25;;;;;;;38.00;23.42;;;;;;;5.74;73.92;100563.75;5027690;28;20116;-77
2022/03/30 03:59:51;;;;;;;42.90;23.50;;;;;;;5.73;73.99;100562.06;5017652;28;20025;-77
2022/03/30 04:02:16;;;;;;;42.92;23.42;;;;;;;5.65;74.87;100560.75;5014441;28;20106;-76
2022/03/30 04:04:44;;;;;;;40.65;23.77;;;;;;;5.65;74.01;100557.31;5036377;28;20497;-77
2022/03/30 04:07:09;;;;;;;40.42;24.02;;;;;;;5.63;74.57;100559.16;5044221;28;20033;-77
2022/03/30 04:09:36;;;;;;;43.70;23.23;;;;;;;5.61;74.22;100553.19;5028513;28;20099;-77
2022/03/30 04:12:02;;;;;;;41.38;23.48;;;;;;;5.58;74.84;100548.13;5041669;28;20075;-77
2022/03/30 04:14:27;;;;;;;41.83;23.88;;;;;;;5.54;74.83;100546.63;5040471;28;20033;-77
2022/03/30 04:16:53;;;;;;;40.80;22.80;;;;;;;5.50;74.93;100551.19;5008220;28;20030;-77
2022/03/30 04:19:18;;;;;;;41.90;22.80;;;;;;;5.49;74.50;100552.13;5009279;28;20022;-76
2022/03/30 04:21:44;;;;;;;49.33;24.67;;;;;;;5.45;74.67;100541.94;5044558;28;20489;-77
2022/03/30 04:24:10;;;;;;;50.17;24.30;;;;;;;5.43;75.19;100549.88;5026750;28;20082;-77
2022/03/30 04:26:36;;;;;;;47.17;23.63;;;;;;;5.41;75.02;100546.50;5029227;28;20029;-76
2022/03/30 04:29:02;;;;;;;44.83;24.90;;;;;;;5.37;74.92;100545.00;5018266;28;20018;-77
2022/03/30 04:31:28;;;;;;;42.67;23.95;;;;;;;5.34;74.98;100545.19;5019884;28;20029;-77
2022/03/30 04:33:53;;;;;;;44.67;23.90;;;;;;;5.32;75.46;100541.81;5009278;28;20042;-77
2022/03/30 04:36:19;;;;;;;46.80;23.20;;;;;;;5.27;75.32;100539.47;5009620;28;20367;-76
2022/03/30 04:38:45;;;;;;;41.30;24.48;;;;;;;5.23;75.02;100540.56;5026142;28;20014;-76
2022/03/30 04:41:12;;;;;;;46.03;23.38;;;;;;;5.19;75.21;100551.25;5047311;28;20049;-76
2022/03/30 04:43:38;;;;;;;41.22;23.92;;;;;;;5.16;75.50;100561.84;5042988;28;20117;-77
2022/03/30 04:46:03;;;;;;;45.97;23.65;;;;;;;5.11;74.86;100556.06;5029783;28;20500;-76
2022/03/30 04:48:28;;;;;;;48.50;24.52;;;;;;;5.07;75.40;100557.16;5039109;28;20022;-77
2022/03/30 04:50:54;;;;;;;44.45;24.55;;;;;;;5.01;75.83;100553.97;5029559;28;20552;-77
2022/03/30 04:53:19;;;;;;;46.03;24.90;;;;;;;4.98;75.74;100559.34;5030103;28;20037;-76
2022/03/30 04:55:45;;;;;;;47.97;25.00;;;;;;;4.95;75.55;100553.47;5061442;28;20025;-77
2022/03/30 04:58:10;;;;;;;49.85;24.88;;;;;;;4.89;75.73;100554.66;5029017;28;20037;-76
2022/03/30 05:00:36;;;;;;;47.88;25.73;;;;;;;4.86;76.21;100562.66;5030471;28;20048;-76
2022/03/30 05:03:01;;;;;;;50.88;25.23;;;;;;;4.79;76.17;100558.66;5039125;28;20028;-77
2022/03/30 05:05:27;;;;;;;44.40;24.52;;;;;;;4.78;76.62;100561.34;5031356;28;20095;-77
2022/03/30 05:07:54;;;;;;;47.70;25.38;;;;;;;4.73;76.69;100554.63;5023605;28;20036;-77
2022/03/30 05:10:20;;;;;;;45.28;24.67;;;;;;;4.71;77.31;100560.84;5033170;28;20016;-77
2022/03/30 05:12:45;;;;;;;47.83;25.27;;;;;;;4.69;77.12;100557.50;5028946;28;20393;-77
2022/03/30 05:15:11;;;;;;;51.40;25.65;;;;;;;4.66;76.77;100547.25;5021792;28;20033;-77
2022/03/30 05:17:43;;;;;;;51.63;26.13;;;;;;;4.65;77.60;100550.78;5029550;28;20028;-76
2022/03/30 05:20:09;;;;;;;;;;;;;;;4.77;75.25;100549.25;5005426;28;20628;-77
2022/03/30 05:22:35;;;;;;;53.70;26.90;;;;;;;4.61;76.99;100547.50;5033540;28;20004;-77
2022/03/30 05:25:01;;;;;;;50.05;25.63;;;;;;;4.58;77.43;100539.00;5063115;28;20091;-76
2022/03/30 05:27:26;;;;;;;43.78;25.35;;;;;;;4.57;77.64;100539.94;5017425;28;20033;-76
2022/03/30 05:29:52;;;;;;;53.88;26.98;;;;;;;4.56;77.56;100543.47;5011007;28;20075;-77
2022/03/30 05:32:17;;;;;;;56.03;26.50;;;;;;;4.51;77.65;100546.31;5017698;28;20028;-77
2022/03/30 05:34:43;;;;;;;49.35;26.08;;;;;;;4.50;77.37;100543.78;5033068;28;20057;-77
2022/03/30 05:37:09;;;;;;;45.35;25.85;;;;;;;4.48;77.76;100548.25;5025878;28;20405;-77
2022/03/30 05:39:39;;;;;;;44.40;25.75;;;;;;;4.46;78.35;100547.47;5009959;28;20061;-77
2022/03/30 05:42:05;;;;;;;48.30;26.23;;;;;;;4.44;78.13;100544.13;5021182;28;20096;-76
2022/03/30 05:44:31;;;;;;;47.35;25.70;;;;;;;4.42;78.04;100548.56;5032791;28;20819;-77
2022/03/30 05:46:57;;;;;;;51.00;26.70;;;;;;;4.38;78.35;100545.25;5034717;28;20025;-76
2022/03/30 05:49:23;;;;;;;45.60;25.13;;;;;;;4.36;78.51;100540.13;5027320;28;20055;-77
2022/03/30 05:51:49;;;;;;;47.97;25.85;;;;;;;4.33;78.98;100535.09;5022185;28;20024;-77
2022/03/30 05:54:14;;;;;;;49.25;25.92;;;;;;;4.34;78.65;100531.56;5024834;28;20029;-77
2022/03/30 05:59:23;;;;;;;49.67;26.10;;;;;;;4.33;78.87;100540.31;5028625;28;20536;-77
2022/03/30 06:01:49;;;;;;;49.17;25.88;;;;;;;4.30;78.88;100539.63;5028371;28;20025;-77
2022/03/30 06:04:14;;;;;;;50.35;26.58;;;;;;;4.31;79.61;100547.34;5035761;28;20081;-77
2022/03/30 06:06:40;;;;;;;48.22;26.13;;;;;;;4.29;79.42;100550.97;5028224;28;20037;-76
2022/03/30 06:09:07;;;;;;;44.25;26.33;;;;;;;4.29;79.76;100548.34;5030703;28;20127;-77
2022/03/30 06:11:33;;;;;;;50.35;25.73;;;;;;;4.29;79.27;100545.75;5042869;28;20486;-76
2022/03/30 06:13:58;;;;;;;55.90;27.35;;;;;;;4.30;79.42;100560.47;5031550;28;20036;-77
2022/03/30 06:16:25;;;;;;;46.33;27.10;;;;;;;4.28;79.65;100562.31;5031724;28;20092;-77
2022/03/30 06:18:51;;;;;;;53.22;26.95;;;;;;;4.27;79.93;100561.47;5027048;28;20036;-77
2022/03/30 06:21:16;;;;;;;50.47;27.13;;;;;;;4.29;80.27;100559.63;5013678;28;20413;-77
2022/03/30 06:23:42;;;;;;;52.47;27.42;;;;;;;4.29;80.38;100559.63;5030117;28;20022;-77
2022/03/30 06:26:08;;;;;;;54.55;27.20;;;;;;;4.29;80.26;100559.63;5031585;28;20389;-77
2022/03/30 06:28:33;;;;;;;50.15;27.35;;;;;;;4.29;80.27;100558.78;5032596;28;20025;-77
2022/03/30 06:30:58;;;;;;;54.00;27.90;;;;;;;4.29;79.90;100562.22;5031042;28;20021;-79
2022/03/30 06:33:24;;;;;;;56.28;28.58;;;;;;;4.31;80.90;100557.78;5030719;28;20038;-77
2022/03/30 06:35:49;;;;;;;52.00;26.50;;;;;;;4.34;80.51;100560.22;5032076;28;20029;-77
2022/03/30 06:38:14;;;;;;;50.90;26.77;;;;;;;4.35;79.86;100561.91;5031418;28;20113;-76
2022/03/30 06:40:40;;;;;;;51.33;28.10;;;;;;;4.35;80.08;100561.91;5031694;28;20029;-77
2022/03/30 06:43:05;;;;;;;50.38;27.95;;;;;;;4.38;80.61;100559.13;5031257;28;20076;-77
2022/03/30 06:45:31;;;;;;;59.33;28.02;;;;;;;4.39;80.74;100550.38;5030906;28;20098;-77
2022/03/30 06:47:56;;;;;;;54.08;27.00;;;;;;;4.39;80.25;100550.38;5032208;28;20064;-77
2022/03/30 06:50:22;;;;;;;51.65;26.42;;;;;;;4.43;79.99;100552.84;5046342;28;20029;-77
2022/03/30 06:52:47;;;;;;;47.40;26.15;;;;;;;4.48;80.46;100553.44;5043616;28;20088;-77
2022/03/30 06:55:14;;;;;;;53.97;26.42;;;;;;;4.51;80.27;100553.28;5031817;28;20430;-77
2022/03/30 06:57:40;;;;;;;53.83;25.52;;;;;;;4.52;80.37;100554.97;5032892;28;20044;-76
2022/03/30 07:00:07;;;;;;;50.67;26.33;;;;;;;4.57;80.10;100552.94;5031345;28;20044;-80
2022/03/30 07:02:32;;;;;;;50.58;26.20;;;;;;;4.61;80.33;100549.25;5036850;28;20080;-79
2022/03/30 07:04:58;;;;;;;47.83;25.83;;;;;;;4.65;80.20;100535.13;5031408;28;20501;-79
2022/03/30 07:10:16;;;;;;;48.03;24.17;;;;;;;4.77;79.53;100547.47;5032081;28;20116;-77
2022/03/30 07:12:43;;;;;;;50.95;25.23;;;;;;;4.83;79.28;100552.38;5014739;28;20033;-77
2022/03/30 07:15:09;;;;;;;45.38;24.42;;;;;;;4.90;78.89;100555.50;5032114;28;20034;-77
2022/03/30 07:17:42;;;;;;;47.75;25.20;;;;;;;4.98;79.26;100553.28;5030537;28;20485;-77
2022/03/30 07:20:10;;;;;;;48.88;24.02;;;;;;;5.08;79.33;100553.63;5026355;28;20224;-77
2022/03/30 07:22:35;;;;;;;46.80;25.05;;;;;;;5.16;78.75;100546.19;5015995;28;20036;-76
2022/03/30 07:25:01;;;;;;;46.92;24.20;;;;;;;5.26;78.15;100536.94;5012130;28;20025;-76
2022/03/30 07:27:26;;;;;;;44.72;23.88;;;;;;;5.36;77.92;100545.94;5010285;28;20033;-77
2022/03/30 07:29:52;;;;;;;43.45;23.38;;;;;;;5.43;77.90;100549.88;5013650;28;20402;-77
2022/03/30 07:32:19;;;;;;;48.22;24.92;;;;;;;5.54;76.90;100549.22;5028768;28;20071;-76
2022/03/30 07:34:45;;;;;;;41.38;23.80;;;;;;;5.62;77.30;100549.66;5045469;28;20045;-77
2022/03/30 07:37:10;;;;;;;43.00;23.85;;;;;;;5.70;76.75;100546.59;5027442;28;20401;-77
2022/03/30 07:39:36;;;;;;;52.45;26.60;;;;;;;5.81;76.30;100544.19;5026023;28;20026;-76
2022/03/30 07:42:02;;;;;;;46.35;26.48;;;;;;;5.90;76.21;100538.44;5022030;28;20551;-77
2022/03/30 07:44:28;;;;;;;53.95;26.23;;;;;;;5.97;75.66;100539.75;5031646;28;20026;-77
2022/03/30 07:46:53;;;;;;;53.25;28.83;;;;;;;6.09;75.85;100539.03;5028397;28;20029;-77
2022/03/30 07:49:18;;;;;;;47.85;26.17;;;;;;;6.18;75.87;100538.47;5030996;28;20018;-76
2022/03/30 07:51:44;;;;;;;44.92;25.33;;;;;;;6.29;75.94;100532.59;5029716;28;20473;-77
2022/03/30 07:54:10;;;;;;;44.85;24.05;;;;;;;6.39;75.14;100530.25;5012493;28;20508;-76
2022/03/30 07:56:35;;;;;;;48.38;24.27;;;;;;;6.49;75.15;100532.22;5024743;28;20033;-77
2022/03/30 07:59:01;;;;;;;43.28;23.67;;;;;;;6.58;74.52;100544.72;5030660;28;20093;-77
2022/03/30 08:01:27;;;;;;;42.22;22.80;;;;;;;6.66;73.43;100532.94;5028871;28;20032;-77
2022/03/30 08:03:52;;;;;;;40.70;21.98;;;;;;;6.73;72.85;100535.06;5040050;28;20397;-75
2022/03/30 08:06:18;;;;;;;34.35;20.95;;;;;;;6.77;72.42;100531.31;5029516;28;20405;-76
2022/03/30 08:08:44;;;;;;;38.53;21.25;;;;;;;6.85;72.33;100541.31;5028596;28;20096;-75
2022/03/30 08:11:09;;;;;;;36.05;21.40;;;;;;;6.91;72.43;100538.31;5027792;28;20313;-76
2022/03/30 08:13:35;;;;;;;36.17;21.17;;;;;;;6.97;72.88;100543.13;5028653;28;20173;-76
2022/03/30 08:16:02;;;;;;;39.30;21.30;;;;;;;7.06;72.58;100542.53;5028660;28;20116;-76
2022/03/30 08:18:28;;;;;;;37.10;20.52;;;;;;;7.14;72.28;100535.03;5025893;28;20037;-76
2022/03/30 08:23:37;;;;;;;41.85;21.58;;;;;;;7.34;72.40;100541.59;5029935;28;20111;-76
2022/03/30 08:26:03;;;;;;;44.20;22.33;;;;;;;7.45;72.14;100544.34;5030476;28;20021;-76
2022/03/30 08:28:28;;;;;;;39.08;22.08;;;;;;;7.50;71.80;100537.03;5029203;28;20026;-76
2022/03/30 08:30:54;;;;;;;39.50;21.92;;;;;;;7.58;71.34;100541.75;5029234;28;20440;-77
2022/03/30 08:33:23;;;;;;;40.08;21.95;;;;;;;7.67;71.01;100533.31;5016159;28;20042;-78
2022/03/30 08:35:50;;;;;;;37.22;21.08;;;;;;;7.74;69.92;100538.97;5026268;28;20041;-78
2022/03/30 08:38:15;;;;;;;33.88;20.83;;;;;;;7.83;69.85;100538.34;5029901;28;20493;-77
2022/03/30 08:40:41;;;;;;;39.53;21.20;;;;;;;7.89;69.82;100526.59;5029286;28;20036;-78
2022/03/30 08:43:07;;;;;;;38.50;22.30;;;;;;;7.97;69.54;100530.38;5029105;28;20025;-77
2022/03/30 08:45:32;;;;;;;38.55;20.42;;;;;;;8.03;68.29;100529.97;5030534;28;20036;-78
2022/03/30 08:47:57;;;;;;;42.28;20.77;;;;;;;8.10;68.48;100525.16;5028247;28;20025;-78
2022/03/30 08:50:23;;;;;;;36.55;20.65;;;;;;;8.16;68.35;100525.56;5035335;28;20392;-78
2022/03/30 08:52:49;;;;;;;32.38;19.13;;;;;;;8.26;68.43;100524.91;5033859;28;20552;-78
2022/03/30 08:55:16;;;;;;;33.60;20.10;;;;;;;8.36;67.71;100526.81;5028306;28;20021;-77
2022/03/30 08:57:42;;;;;;;39.53;19.98;;;;;;;8.43;68.03;100516.78;5028384;28;20392;-78
2022/03/30 09:00:13;;;;;;;32.60;17.92;;;;;;;8.51;67.16;100524.94;5028952;28;20025;-78
2022/03/30 09:02:42;;;;;;;31.10;18.15;;;;;;;8.58;66.93;100527.94;5040206;28;20025;-78
2022/03/30 09:05:13;;;;;;;32.70;18.95;;;;;;;8.69;67.25;100528.84;5029700;28;20018;-78
2022/03/30 09:07:40;;;;;;;31.73;19.25;;;;;;;8.74;65.87;100526.75;5027774;28;20025;-78
2022/03/30 09:10:11;;;;;;;30.70;17.85;;;;;;;8.83;66.09;100521.81;5026631;28;20071;-78
2022/03/30 09:12:38;;;;;;;31.93;17.70;;;;;;;8.89;65.96;100523.97;5025250;28;20024;-78
2022/03/30 09:15:04;;;;;;;32.47;18.20;;;;;;;8.95;65.88;100513.88;5030491;28;20049;-78
2022/03/30 09:17:37;;;;;;;32.85;17.80;;;;;;;9.06;66.30;100507.84;5028330;28;20036;-78
2022/03/30 09:20:11;;;;;;;35.85;18.05;;;;;;;9.18;65.59;100511.34;5028428;28;20469;-78
2022/03/30 09:22:41;;;;;;;34.30;18.05;;;;;;;9.29;65.73;100501.75;5027217;28;20032;-78
2022/03/30 09:25:08;;;;;;;28.65;17.70;;;;;;;9.39;65.08;100504.53;5033920;28;20145;-78
2022/03/30 09:27:39;;;;;;;25.98;17.13;;;;;;;9.50;64.67;100498.47;5025477;28;20072;-78
2022/03/30 09:30:06;;;;;;;33.85;18.20;;;;;;;9.56;63.99;100487.50;5027802;28;20033;-78
2022/03/30 09:32:32;;;;;;;28.75;17.83;;;;;;;9.69;64.21;100493.50;5028518;28;20040;-78
2022/03/30 09:34:58;;;;;;;29.92;17.73;;;;;;;9.77;63.81;100487.66;5030862;28;20045;-77
2022/03/30 09:37:23;;;;;;;29.60;18.23;;;;;;;9.84;63.54;100487.06;5035770;28;20025;-78
2022/03/30 09:39:49;;;;;;;31.38;18.38;;;;;;;9.93;63.25;100480.28;5026184;28;20029;-78
2022/03/30 09:42:16;;;;;;;31.58;18.42;;;;;;;10.04;63.21;100485.56;5035170;28;20508;-78
2022/03/30 09:44:53;;;;;;;31.13;17.75;;;;;;;10.12;62.92;100479.69;5035405;28;20037;-78
2022/03/30 09:47:20;;;;;;;29.25;17.15;;;;;;;10.17;61.11;100488.06;5040091;28;20021;-78
2022/03/30 09:49:54;;;;;;;30.58;18.15;;;;;;;10.27;61.75;100479.34;5036505;28;20041;-78
2022/03/30 09:52:26;;;;;;;30.55;17.60;;;;;;;10.37;61.94;100482.09;5031817;28;20176;-78
2022/03/30 09:54:54;;;;;;;32.17;18.52;;;;;;;10.43;61.00;100478.16;5034401;28;20041;-78
2022/03/30 09:57:37;;;;;;;33.55;17.90;;;;;;;10.54;61.59;100480.78;5035425;28;20025;-78
2022/03/30 10:00:15;;;;;;;31.00;18.60;;;;;;;10.65;61.44;100473.69;5040164;28;20483;-79
2022/03/30 10:02:47;;;;;;;29.17;18.02;;;;;;;10.76;60.71;100475.44;5035688;28;20381;-78
2022/03/30 10:05:14;;;;;;;;;;;;;;;10.86;62.80;100472.94;5034773;28;20180;-78
2022/03/30 10:07:40;;;;;;;30.58;18.60;;;;;;;10.96;59.45;100468.59;5023454;28;20383;-79
2022/03/30 10:10:08;;;;;;;32.15;18.33;;;;;;;11.12;60.06;100461.09;5038419;28;20017;-79
2022/03/30 10:12:34;;;;;;;33.95;18.92;;;;;;;11.23;59.44;100463.69;5039089;28;20032;-79
2022/03/30 10:14:59;;;;;;;30.52;19.50;;;;;;;11.37;58.93;100454.63;5026831;28;20111;-74
2022/03/30 10:17:26;;;;;;;28.67;18.42;;;;;;;11.48;58.71;100456.38;5034588;28;20108;-74
2022/03/30 10:19:55;;;;;;;34.17;18.05;;;;;;;11.66;58.60;100454.84;5034265;28;20057;-74
2022/03/30 10:22:41;;;;;;;29.92;17.60;;;;;;;11.72;57.67;100453.47;5035329;28;20560;-74
2022/03/30 10:25:24;;;;;;;30.50;17.95;;;;;;;11.84;57.19;100457.72;5033072;28;20029;-74
2022/03/30 10:27:54;;;;;;;28.73;17.73;;;;;;;11.96;56.40;100450.56;5031586;28;20045;-77
2022/03/30 10:30:31;;;;;;;30.35;17.63;;;;;;;12.07;57.33;100453.13;5034366;28;20067;-76
2022/03/30 10:32:59;;;;;;;31.25;17.50;;;;;;;12.17;55.61;100451.34;5035639;28;20372;-76
2022/03/30 10:35:43;;;;;;;26.60;17.55;;;;;;;12.29;56.63;100437.09;5046303;28;20063;-78
2022/03/30 10:38:09;;;;;;;31.63;17.85;;;;;;;12.35;54.94;100446.25;5037820;28;20033;-77
2022/03/30 10:40:35;;;;;;;28.77;17.77;;;;;;;12.52;54.83;100437.72;5034185;28;20025;-77
2022/03/30 10:43:04;;;;;;;25.85;16.58;;;;;;;12.49;54.14;100437.97;5033219;28;20041;-77
2022/03/30 10:45:43;;;;;;;29.40;17.55;;;;;;;12.61;54.73;100425.50;5052437;28;20039;-77
2022/03/30 10:48:13;;;;;;;29.75;17.48;;;;;;;12.71;53.97;100415.78;5036534;28;20104;-77
2022/03/30 10:50:45;;;;;;;24.60;16.75;;;;;;;12.86;54.35;100412.59;5033574;28;20551;-77
2022/03/30 10:53:32;;;;;;;25.55;17.00;;;;;;;13.02;54.80;100404.13;5031348;28;20075;-77
2022/03/30 10:56:15;;;;;;;26.83;16.60;;;;;;;13.21;54.45;100402.44;5031151;28;20060;-77
2022/03/30 10:58:50;;;;;;;23.02;16.10;;;;;;;13.39;53.21;100400.75;5028378;28;20022;-77
2022/03/30 11:01:39;;;;;;;29.67;17.23;;;;;;;13.51;52.64;100410.19;5027855;28;20025;-77
2022/03/30 11:04:10;;;;;;;25.15;17.02;;;;;;;13.65;52.38;100401.81;5043413;28;20053;-78
2022/03/30 11:06:38;;;;;;;27.60;16.85;;;;;;;13.55;50.58;100401.00;5032468;28;20506;-78
2022/03/30 11:09:07;;;;;;;27.33;17.42;;;;;;;13.67;51.14;100394.56;5030979;28;20052;-77
2022/03/30 11:11:54;;;;;;;30.08;17.08;;;;;;;13.90;51.27;100386.25;5028316;28;20021;-77
2022/03/30 11:14:32;;;;;;;24.67;16.30;;;;;;;14.02;50.49;100383.28;5031443;28;20021;-78
2022/03/30 11:17:01;;;;;;;26.70;17.90;;;;;;;14.07;50.74;100377.56;5031950;28;20112;-77
2022/03/30 11:19:51;;;;;;;25.63;16.00;;;;;;;14.15;50.60;100382.94;5031248;28;20032;-75
2022/03/30 11:22:26;;;;;;;25.80;16.45;;;;;;;14.39;51.44;100367.31;5015566;28;20052;-77
2022/03/30 11:25:19;;;;;;;24.67;16.42;;;;;;;14.48;51.12;100367.44;5030895;28;20036;-77
2022/03/30 11:27:57;;;;;;;29.10;16.30;;;;;;;14.62;49.62;100365.09;5031590;28;20033;-76